createdAt,value
2022-09-12T00:02:11.364Z,20.7
2022-09-12T00:21:48.912Z,20.7
2022-09-12T00:41:48.680Z,20.6
2022-09-12T01:01:49.409Z,20.5
2022-09-12T01:22:10.476Z,20.4
2022-09-12T01:41:48.291Z,20.4
2022-09-12T02:02:32.103Z,20.3
2022-09-12T02:22:00.862Z,20.2
2022-09-12T02:41:48.972Z,20.2
2022-09-12T03:01:49.092Z,20.1
2022-09-12T03:21:48.498Z,20
2022-09-12T03:42:10.302Z,19.9
2022-09-12T04:02:09.893Z,19.9
2022-09-12T04:22:10.612Z,19.8
2022-09-12T04:41:48.437Z,19.9
2022-09-12T05:02:32.564Z,19.8
2022-09-12T05:21:47.612Z,19.8
2022-09-12T05:41:49.288Z,19.9
2022-09-12T06:02:32.286Z,19.9
2022-09-12T06:21:49.105Z,19.9
2022-09-12T07:01:48.914Z,19.9
2022-09-12T07:21:47.421Z,19.9
2022-09-12T07:41:50.401Z,19.9
2022-09-12T08:41:49.332Z,20
2022-09-12T09:21:49.331Z,20
2022-09-12T09:41:49.520Z,20.1
2022-09-12T10:01:47.727Z,20.2
2022-09-12T11:01:48.128Z,20.4
2022-09-12T11:21:48.576Z,20.4
2022-09-12T11:42:10.594Z,20.4
2022-09-12T12:02:33.212Z,20.5
2022-09-12T12:21:48.778Z,20.5
2022-09-12T12:41:48.751Z,20.6
2022-09-12T13:02:12.396Z,20.7
2022-09-12T13:22:10.755Z,20.8
2022-09-12T13:42:10.612Z,20.9
2022-09-12T14:02:32.354Z,21
2022-09-12T14:21:49.010Z,21.1
2022-09-12T14:41:48.916Z,21.3
2022-09-12T15:21:48.303Z,21.5
2022-09-12T15:42:10.459Z,21.6
2022-09-12T16:01:48.121Z,21.8
2022-09-12T16:21:48.871Z,22
2022-09-12T16:42:11.032Z,22.2
2022-09-12T17:01:48.746Z,22.2
2022-09-12T17:21:48.719Z,22.2
2022-09-12T17:42:10.724Z,22.2
2022-09-12T18:02:09.259Z,22.1
2022-09-12T18:21:49.041Z,22
2022-09-12T18:41:48.456Z,22
2022-09-12T19:01:48.737Z,22.1
2022-09-12T19:42:32.609Z,22
2022-09-12T20:02:10.263Z,22.1
2022-09-12T20:22:10.964Z,22
2022-09-12T21:22:10.530Z,21.8
2022-09-12T21:42:09.748Z,21.8
2022-09-12T22:02:19.409Z,21.7
2022-09-12T22:22:33.117Z,21.6
2022-09-12T22:42:15.039Z,21.6
2022-09-12T23:01:48.947Z,21.5
2022-09-12T23:22:15.646Z,21.4
2022-09-12T23:41:48.873Z,21.3
